Time;durP1;ratioP1;P1;durP2;ratioP2;P2;SDS_P1;SDS_P2;PMS_P1;PMS_P2;Temp;Humidity;BMP_temperature;BMP_pressure;BME280_temperature;BME280_humidity;BME280_pressure;Samples;Min_cycle;Max_cycle;Signal;HPM_P1;HPM_P2
2022/03/24 00:01:59;;;;;;;16.98;11.43;;;18.30;39.40;17.40;102554.00;;;;5074044;28;20039;-71
2022/03/24 00:04:45;;;;;;;15.70;11.85;;;18.30;39.40;17.40;102558.00;;;;5076556;28;20248;-71
2022/03/24 00:07:31;;;;;;;16.27;11.55;;;18.30;39.30;17.40;102559.00;;;;5073060;28;20058;-71
2022/03/24 00:10:18;;;;;;;15.87;11.30;;;18.30;39.40;17.40;102555.00;;;;5057902;28;20490;-71
2022/03/24 00:13:04;;;;;;;16.80;12.40;;;18.20;39.40;17.40;102549.00;;;;5058606;28;20033;-71
2022/03/24 00:15:50;;;;;;;15.95;12.30;;;18.30;39.40;17.40;102543.00;;;;5043249;28;20061;-71
2022/03/24 00:18:36;;;;;;;19.25;12.13;;;18.30;39.50;17.40;102542.00;;;;5057536;28;20040;-71
2022/03/24 00:21:24;;;;;;;13.73;10.75;;;18.30;39.40;17.40;102547.00;;;;5055257;28;20041;-71
2022/03/24 00:24:10;;;;;;;18.73;11.68;;;18.30;39.40;17.40;102551.00;;;;5046131;28;20379;-71
2022/03/24 00:26:56;;;;;;;17.63;12.82;;;18.30;39.40;17.40;102545.00;;;;5055497;28;20123;-71
2022/03/24 00:29:43;;;;;;;17.25;12.63;;;18.20;39.40;17.40;102549.00;;;;5061842;28;20154;-71
2022/03/24 00:32:32;;;;;;;15.33;11.57;;;18.20;39.30;17.40;102540.00;;;;5043280;28;20045;-71
2022/03/24 00:35:18;;;;;;;15.43;12.10;;;18.20;39.40;17.40;102541.00;;;;5053822;28;20336;-71
2022/03/24 00:38:07;;;;;;;15.73;11.68;;;18.20;39.30;17.40;102537.00;;;;5057277;28;20041;-71
2022/03/24 00:40:54;;;;;;;16.92;12.25;;;18.20;39.30;17.30;102545.00;;;;5053724;28;20063;-71
2022/03/24 00:43:40;;;;;;;15.93;12.38;;;18.20;39.30;17.30;102535.00;;;;5046221;28;20040;-71
2022/03/24 00:46:26;;;;;;;14.80;11.35;;;18.20;39.40;17.30;102531.00;;;;5042074;28;20090;-71
2022/03/24 00:49:12;;;;;;;15.77;12.10;;;18.20;39.40;17.30;102529.00;;;;5053255;28;20044;-71
2022/03/24 00:51:58;;;;;;;18.30;12.73;;;18.20;39.40;17.30;102527.00;;;;5058974;28;20581;-71
2022/03/24 00:54:44;;;;;;;15.43;12.00;;;18.20;39.40;17.30;102523.00;;;;5040144;28;20520;-71
2022/03/24 00:57:30;;;;;;;17.88;12.25;;;18.20;39.40;17.30;102522.00;;;;5054072;28;20048;-71
2022/03/24 01:00:38;;;;;;;18.52;13.32;;;18.20;39.40;17.30;102520.00;;;;5054123;28;20443;-71
2022/03/24 01:03:24;;;;;;;17.00;12.63;;;18.20;39.40;17.30;102511.00;;;;5047466;28;20151;-71
2022/03/24 01:06:10;;;;;;;18.88;12.25;;;18.10;39.30;17.30;102522.00;;;;5059261;28;20523;-71
2022/03/24 01:08:57;;;;;;;16.73;12.07;;;18.20;39.40;17.30;102520.00;;;;5056031;28;20101;-71
2022/03/24 01:11:43;;;;;;;16.48;11.77;;;18.10;39.30;17.30;102520.00;;;;5053125;28;20037;-71
2022/03/24 01:14:32;;;;;;;15.27;12.23;;;18.10;39.30;17.30;102520.00;;;;5065344;28;20485;-71
2022/03/24 01:17:18;;;;;;;17.38;12.48;;;18.10;39.30;17.20;102521.00;;;;5059470;28;20060;-71
2022/03/24 01:20:05;;;;;;;16.60;11.82;;;18.10;39.30;17.30;102508.00;;;;5058875;28;20028;-71
2022/03/24 01:22:51;;;;;;;15.43;11.60;;;18.10;39.30;17.20;102514.00;;;;5049219;28;20041;-71
2022/03/24 01:25:37;;;;;;;15.18;11.32;;;18.20;39.40;17.20;102514.00;;;;5055824;28;20275;-71
2022/03/24 01:28:23;;;;;;;15.65;12.63;;;18.00;39.20;17.20;102511.00;;;;5061013;28;20128;-71
2022/03/24 01:31:10;;;;;;;16.65;12.23;;;18.10;39.30;17.20;102510.00;;;;5058909;28;20052;-71
2022/03/24 01:33:56;;;;;;;17.10;12.27;;;18.10;39.30;17.20;102512.00;;;;5033441;28;20470;-71
2022/03/24 01:36:42;;;;;;;15.40;12.25;;;18.10;39.30;17.20;102512.00;;;;5059346;28;20044;-71
2022/03/24 01:39:28;;;;;;;16.52;12.30;;;18.10;39.30;17.20;102503.00;;;;5043984;28;20062;-71
2022/03/24 01:42:16;;;;;;;17.10;12.88;;;18.10;39.30;17.20;102512.00;;;;5044955;28;20047;-71
2022/03/24 01:45:03;;;;;;;16.98;13.25;;;18.10;39.30;17.20;102508.00;;;;5064756;28;20422;-71
2022/03/24 01:47:50;;;;;;;20.30;13.50;;;18.00;39.30;17.20;102505.00;;;;5067348;28;20378;-71
2022/03/24 01:50:37;;;;;;;15.77;11.75;;;18.10;39.30;17.20;102506.00;;;;5053028;28;20279;-71
2022/03/24 01:53:26;;;;;;;16.23;12.10;;;18.00;39.30;17.20;102505.00;;;;5037767;28;20131;-71
2022/03/24 01:56:12;;;;;;;17.60;12.60;;;18.00;39.40;17.20;102507.00;;;;5054511;28;20053;-71
2022/03/24 01:58:58;;;;;;;18.13;13.77;;;18.00;39.40;17.20;102505.00;;;;5036751;28;20124;-71
2022/03/24 02:01:44;;;;;;;16.55;12.63;;;18.00;39.30;17.20;102498.00;;;;5057521;28;20394;-71
2022/03/24 02:04:32;;;;;;;18.95;13.48;;;17.90;39.20;17.10;102497.00;;;;5058967;28;20504;-71
2022/03/24 02:07:18;;;;;;;16.60;12.70;;;18.10;39.30;17.10;102498.00;;;;5064312;28;20067;-71
2022/03/24 02:10:08;;;;;;;17.35;12.55;;;18.00;39.30;17.10;102499.00;;;;5057753;28;20036;-71
2022/03/24 02:12:56;;;;;;;19.70;13.45;;;18.00;39.30;17.10;102494.00;;;;5035823;28;20052;-71
2022/03/24 02:15:43;;;;;;;18.58;13.73;;;18.00;39.30;17.10;102489.00;;;;5063539;28;20040;-71
2022/03/24 02:18:30;;;;;;;17.45;13.48;;;18.00;39.40;17.10;102494.00;;;;5059960;28;20452;-71
2022/03/24 02:21:16;;;;;;;19.52;14.00;;;18.00;39.40;17.10;102490.00;;;;5063644;28;20498;-71
2022/03/24 02:24:02;;;;;;;16.42;12.90;;;17.90;39.30;17.10;102492.00;;;;5058287;28;20029;-71
2022/03/24 02:26:49;;;;;;;17.45;12.93;;;17.90;39.20;17.10;102491.00;;;;5057195;28;20089;-71
2022/03/24 02:29:36;;;;;;;18.13;14.03;;;17.90;39.20;17.10;102490.00;;;;5052602;28;20047;-71
2022/03/24 02:32:22;;;;;;;17.35;13.48;;;17.90;39.40;17.10;102483.00;;;;5062374;28;20048;-71
2022/03/24 02:35:09;;;;;;;17.70;12.43;;;17.90;39.40;17.10;102489.00;;;;5062427;28;20486;-71
2022/03/24 02:37:55;;;;;;;16.02;12.63;;;17.90;39.40;17.10;102485.00;;;;5045751;28;20041;-71
2022/03/24 02:40:43;;;;;;;19.05;12.70;;;17.90;39.40;17.00;102475.00;;;;5064970;28;20041;-71
2022/03/24 02:43:30;;;;;;;17.25;12.82;;;17.90;39.40;17.00;102486.00;;;;5054305;28;20037;-71
2022/03/24 02:46:16;;;;;;;19.98;13.07;;;17.90;39.30;17.00;102483.00;;;;5047888;28;20052;-71
2022/03/24 02:49:03;;;;;;;17.00;12.77;;;17.90;39.40;17.00;102479.00;;;;5056046;28;20037;-71
2022/03/24 02:51:50;;;;;;;17.55;13.07;;;17.80;39.30;17.00;102477.00;;;;5054699;28;20076;-71
2022/03/24 02:54:37;;;;;;;17.98;12.73;;;17.80;39.30;17.00;102479.00;;;;5048560;28;20087;-71
2022/03/24 02:57:23;;;;;;;16.75;12.30;;;17.80;39.50;17.00;102476.00;;;;5044702;28;20502;-71
2022/03/24 03:00:09;;;;;;;17.17;13.50;;;17.80;39.40;17.00;102468.00;;;;5054845;28;20522;-71
2022/03/24 03:02:55;;;;;;;16.70;12.45;;;17.80;39.30;17.00;102476.00;;;;5057355;28;20033;-71
2022/03/24 03:05:41;;;;;;;16.52;12.45;;;17.80;39.40;16.90;102471.00;;;;5055902;28;20448;-71
2022/03/24 03:08:28;;;;;;;16.70;13.18;;;17.80;39.40;16.90;102474.00;;;;5063531;28;20064;-71
2022/03/24 03:11:14;;;;;;;16.92;12.73;;;17.70;39.50;16.90;102479.00;;;;5053910;28;20107;-71
2022/03/24 03:14:01;;;;;;;15.77;12.25;;;17.80;39.50;16.90;102477.00;;;;5055007;28;20444;-71
2022/03/24 03:16:47;;;;;;;18.20;13.18;;;17.70;39.50;16.90;102481.00;;;;5081416;28;20050;-71
2022/03/24 03:19:34;;;;;;;16.00;12.73;;;17.70;39.40;16.90;102479.00;;;;5062474;28;20094;-71
2022/03/24 03:22:21;;;;;;;17.08;12.70;;;17.70;39.40;16.90;102474.00;;;;5051659;28;20040;-71
2022/03/24 03:25:08;;;;;;;16.73;12.95;;;17.70;39.40;16.90;102490.00;;;;5072900;28;20051;-71
2022/03/24 03:27:54;;;;;;;17.45;13.05;;;17.80;39.50;16.90;102489.00;;;;5076034;28;20051;-71
2022/03/24 03:30:40;;;;;;;15.90;12.85;;;17.70;39.50;16.90;102481.00;;;;5078913;28;20047;-71
2022/03/24 03:33:27;;;;;;;17.67;13.35;;;17.50;39.30;16.90;102488.00;;;;5072626;28;20044;-71
2022/03/24 03:36:13;;;;;;;18.27;13.35;;;17.70;40.10;16.90;102491.00;;;;5081027;28;20525;-71
2022/03/24 03:38:59;;;;;;;18.27;12.93;;;17.70;39.40;16.90;102497.00;;;;5071902;28;20046;-71
2022/03/24 03:41:45;;;;;;;18.08;13.18;;;17.70;39.50;16.90;102494.00;;;;5083070;28;20024;-71
2022/03/24 03:44:31;;;;;;;17.75;12.48;;;17.70;39.50;16.90;102497.00;;;;5076504;28;20482;-71
2022/03/24 03:47:18;;;;;;;16.92;12.30;;;17.70;39.50;16.90;102493.00;;;;5078692;28;20555;-71
2022/03/24 03:50:04;;;;;;;15.82;12.55;;;17.70;39.60;16.80;102496.00;;;;5076944;28;20537;-71
2022/03/24 03:52:51;;;;;;;18.45;13.23;;;17.70;39.50;16.80;102503.00;;;;5074976;28;20036;-71
2022/03/24 03:55:38;;;;;;;20.42;12.95;;;17.70;39.70;16.80;102495.00;;;;5077900;28;20042;-71
2022/03/24 03:58:24;;;;;;;15.13;11.90;;;17.60;39.60;16.80;102498.00;;;;5063538;28;20040;-71
2022/03/24 04:01:10;;;;;;;17.13;13.23;;;17.60;39.50;16.80;102491.00;;;;5078649;28;20044;-71
2022/03/24 04:03:57;;;;;;;16.23;12.07;;;17.60;39.40;16.80;102494.00;;;;5077233;28;20029;-71
2022/03/24 04:06:43;;;;;;;17.37;13.13;;;17.60;39.50;16.80;102497.00;;;;5072829;28;20036;-71
2022/03/24 04:09:29;;;;;;;17.63;13.13;;;17.60;39.50;16.80;102496.00;;;;5074736;28;20320;-71
2022/03/24 04:12:15;;;;;;;19.38;12.75;;;17.60;39.60;16.80;102492.00;;;;5072124;28;20037;-71
2022/03/24 04:15:01;;;;;;;16.10;12.70;;;17.60;39.60;16.80;102488.00;;;;5075729;28;20036;-71
2022/03/24 04:17:49;;;;;;;15.60;13.20;;;17.60;39.60;16.80;102481.00;;;;5076794;28;20433;-71
2022/03/24 04:20:36;;;;;;;17.35;13.27;;;17.60;39.60;16.70;102486.00;;;;5060885;28;20085;-71
2022/03/24 04:23:22;;;;;;;14.63;12.23;;;17.60;39.70;16.70;102487.00;;;;5061042;28;20055;-71
2022/03/24 04:26:10;;;;;;;14.60;11.65;;;17.60;39.70;16.70;102485.00;;;;5076619;28;20048;-71
2022/03/24 04:28:56;;;;;;;;;;;17.50;39.70;16.70;102479.00;;;;5064853;28;20523;-71
2022/03/24 04:31:42;;;;;;;15.82;12.15;;;17.60;39.80;16.70;102479.00;;;;5076242;28;20388;-71
2022/03/24 04:34:28;;;;;;;16.25;12.55;;;17.50;39.60;16.70;102479.00;;;;5073586;28;20459;-71
2022/03/24 04:37:15;;;;;;;17.58;12.13;;;17.50;39.70;16.70;102488.00;;;;5073570;28;20052;-71
2022/03/24 04:40:01;;;;;;;15.10;11.52;;;17.50;40.40;16.70;102480.00;;;;5071881;28;20066;-71
2022/03/24 04:42:50;;;;;;;15.18;12.05;;;17.50;39.70;16.70;102481.00;;;;5072947;28;20114;-71
2022/03/24 04:45:36;;;;;;;17.98;12.77;;;17.50;39.70;16.70;102480.00;;;;5074414;28;20092;-71
2022/03/24 04:48:22;;;;;;;15.73;12.13;;;17.50;39.70;16.70;102480.00;;;;5082189;28;20040;-71
2022/03/24 04:51:09;;;;;;;17.40;12.80;;;17.50;39.80;16.70;102479.00;;;;5073413;28;20048;-71
2022/03/24 04:53:55;;;;;;;17.20;12.55;;;17.50;39.70;16.70;102482.00;;;;5072404;28;20547;-71
2022/03/24 04:56:41;;;;;;;15.25;12.75;;;17.50;39.70;16.60;102483.00;;;;5076068;28;20444;-71
2022/03/24 04:59:28;;;;;;;16.70;12.98;;;17.60;39.80;16.60;102480.00;;;;5075733;28;20405;-71
2022/03/24 05:02:15;;;;;;;16.63;12.27;;;17.40;39.80;16.60;102479.00;;;;5075163;28;20040;-71
2022/03/24 05:05:01;;;;;;;15.30;12.27;;;17.50;39.70;16.60;102479.00;;;;5075356;28;20037;-71
2022/03/24 05:07:48;;;;;;;16.45;11.93;;;17.40;39.80;16.60;102479.00;;;;5072572;28;20060;-71
2022/03/24 05:10:34;;;;;;;15.63;11.98;;;17.40;39.80;16.60;102481.00;;;;5075613;28;20148;-71
2022/03/24 05:13:20;;;;;;;14.57;11.65;;;17.40;39.80;16.60;102488.00;;;;5075124;28;20123;-71
2022/03/24 05:16:06;;;;;;;17.10;13.00;;;17.40;39.80;16.60;102491.00;;;;5074502;28;20127;-71
2022/03/24 05:18:52;;;;;;;16.38;12.75;;;17.40;39.70;16.60;102489.00;;;;5072526;28;20393;-71
2022/03/24 05:21:38;;;;;;;16.10;12.65;;;17.40;39.80;16.60;102499.00;;;;5075942;28;20347;-71
2022/03/24 05:24:24;;;;;;;16.38;12.32;;;17.40;39.70;16.60;102490.00;;;;5077283;28;20102;-71
2022/03/24 05:27:11;;;;;;;18.60;13.23;;;17.40;39.80;16.60;102491.00;;;;5077241;28;20071;-71
2022/03/24 05:29:57;;;;;;;15.50;11.57;;;17.40;39.70;16.60;102488.00;;;;5078603;28;20481;-71
2022/03/24 05:32:43;;;;;;;15.20;12.02;;;17.40;39.80;16.60;102503.00;;;;5057070;28;20039;-71
2022/03/24 05:35:32;;;;;;;15.45;11.35;;;17.40;39.80;16.50;102495.00;;;;5079771;28;20142;-71
2022/03/24 05:38:19;;;;;;;17.10;11.93;;;17.30;39.80;16.50;102488.00;;;;5078639;28;20078;-71
2022/03/24 05:41:05;;;;;;;17.30;12.50;;;17.30;39.80;16.50;102498.00;;;;5044854;28;20533;-71
2022/03/24 05:44:04;;;;;;;17.30;12.55;;;17.30;39.70;16.50;102491.00;;;;5077291;28;20040;-71
2022/03/24 05:46:50;;;;;;;;;;;17.30;39.70;16.50;102494.00;;;;5067009;28;20036;-71
2022/03/24 05:49:36;;;;;;;15.77;12.60;;;17.30;39.80;16.50;102497.00;;;;5088928;28;19912;-71
2022/03/24 05:52:22;;;;;;;16.45;12.23;;;17.30;39.60;16.50;102491.00;;;;5072157;28;20455;-71
2022/03/24 05:55:08;;;;;;;15.80;12.77;;;17.30;39.70;16.50;102494.00;;;;5078687;28;20416;-71
2022/03/24 05:57:54;;;;;;;17.50;12.95;;;17.30;39.70;16.40;102492.00;;;;5063873;28;20032;-71
2022/03/24 06:00:41;;;;;;;15.85;11.75;;;17.30;39.80;16.40;102495.00;;;;5076923;28;20040;-71
2022/03/24 06:03:29;;;;;;;15.02;12.05;;;17.30;39.70;16.50;102495.00;;;;5046292;28;20526;-71
2022/03/24 06:06:15;;;;;;;14.20;11.48;;;17.20;39.70;16.40;102496.00;;;;5058684;28;20041;-71
2022/03/24 06:09:05;;;;;;;16.70;13.13;;;17.30;39.80;16.40;102499.00;;;;5026434;28;20045;-70
2022/03/24 06:11:52;;;;;;;17.85;13.40;;;17.30;39.70;16.40;102504.00;;;;5031041;28;20525;-71
2022/03/24 06:14:39;;;;;;;15.90;12.70;;;17.30;39.80;16.40;102501.00;;;;5053374;28;20040;-71
2022/03/24 06:17:26;;;;;;;15.75;12.20;;;17.30;39.70;16.40;102504.00;;;;5041279;28;20048;-71
2022/03/24 06:20:12;;;;;;;18.73;12.95;;;17.30;39.80;16.40;102504.00;;;;5069487;28;20041;-71
2022/03/24 06:22:58;;;;;;;16.80;12.27;;;17.20;39.80;16.40;102508.00;;;;5054543;28;20116;-71
2022/03/24 06:25:44;;;;;;;13.93;11.68;;;17.20;39.80;16.40;102512.00;;;;5055582;28;20040;-71
2022/03/24 06:28:30;;;;;;;17.67;12.65;;;17.20;39.90;16.40;102512.00;;;;5058774;28;20044;-71
2022/03/24 06:31:16;;;;;;;15.80;12.45;;;17.20;39.80;16.40;102516.00;;;;5062413;28;20111;-71
2022/03/24 06:34:03;;;;;;;16.67;12.85;;;17.20;39.70;16.40;102504.00;;;;5058039;28;20066;-71
2022/03/24 06:36:50;;;;;;;16.27;12.77;;;17.20;39.70;16.40;102509.00;;;;5053881;28;20052;-71
2022/03/24 06:39:36;;;;;;;17.20;12.82;;;17.20;39.70;16.40;102513.00;;;;5055552;28;20090;-71
2022/03/24 06:42:23;;;;;;;16.10;11.98;;;17.20;39.70;16.40;102519.00;;;;5059388;28;20043;-71
2022/03/24 06:45:10;;;;;;;17.45;13.15;;;17.20;39.70;16.40;102512.00;;;;5053671;28;20044;-71
2022/03/24 06:47:56;;;;;;;17.30;12.90;;;17.20;39.70;16.40;102518.00;;;;5059384;28;20032;-71
2022/03/24 06:50:42;;;;;;;17.83;12.57;;;17.20;39.70;16.40;102520.00;;;;5055001;28;20039;-71
2022/03/24 06:53:28;;;;;;;16.35;12.77;;;17.20;39.70;16.40;102527.00;;;;5056966;28;20040;-71
2022/03/24 06:56:14;;;;;;;17.33;13.75;;;17.20;39.70;16.40;102522.00;;;;5052738;28;20098;-71
2022/03/24 06:59:00;;;;;;;17.90;13.20;;;17.20;39.60;16.40;102519.00;;;;5060892;28;20462;-71
2022/03/24 07:01:48;;;;;;;17.23;13.10;;;17.20;39.60;16.40;102521.00;;;;5062271;28;20047;-71
2022/03/24 07:04:34;;;;;;;18.42;13.02;;;17.20;39.70;16.40;102524.00;;;;5059190;28;20048;-71
2022/03/24 07:07:21;;;;;;;17.40;13.13;;;17.20;39.70;16.40;102524.00;;;;5055504;28;20135;-72
2022/03/24 07:10:08;;;;;;;17.80;13.75;;;17.20;39.60;16.40;102531.00;;;;5056666;28;20045;-71
2022/03/24 07:12:54;;;;;;;16.40;13.02;;;17.20;39.70;16.40;102516.00;;;;5059317;28;20041;-71
2022/03/24 07:15:40;;;;;;;18.80;12.88;;;17.20;39.60;16.40;102525.00;;;;5045636;28;20041;-71
2022/03/24 07:18:26;;;;;;;18.27;13.57;;;17.20;39.70;16.40;102533.00;;;;5063453;28;20033;-71
2022/03/24 07:21:13;;;;;;;18.48;13.68;;;17.20;39.60;16.40;102528.00;;;;5054897;28;20106;-71
2022/03/24 07:24:00;;;;;;;16.00;12.52;;;17.30;39.70;16.40;102537.00;;;;5053987;28;20505;-71
2022/03/24 07:26:46;;;;;;;18.35;13.70;;;17.30;39.60;16.40;102538.00;;;;5042707;28;20041;-71
2022/03/24 07:29:32;;;;;;;18.05;13.90;;;17.30;39.60;16.40;102536.00;;;;5058061;28;20041;-70
2022/03/24 07:32:19;;;;;;;17.35;13.50;;;17.30;39.60;16.40;102539.00;;;;5057302;28;20049;-71
2022/03/24 07:35:07;;;;;;;16.93;13.23;;;17.20;39.60;16.40;102541.00;;;;5058173;28;20120;-71
2022/03/24 07:37:53;;;;;;;20.45;14.18;;;17.30;39.60;16.40;102551.00;;;;5049099;28;20280;-71
2022/03/24 07:40:39;;;;;;;17.48;13.70;;;17.30;39.70;16.40;102544.00;;;;5054689;28;20107;-71
2022/03/24 07:43:26;;;;;;;19.70;14.20;;;17.30;39.70;16.40;102543.00;;;;5057488;28;20040;-70
2022/03/24 07:46:14;;;;;;;17.92;13.18;;;17.30;39.70;16.40;102552.00;;;;5040828;28;20049;-71
2022/03/24 07:49:00;;;;;;;18.30;13.65;;;17.30;39.70;16.40;102547.00;;;;5040423;28;20115;-71
2022/03/24 07:51:46;;;;;;;17.38;12.95;;;17.30;39.70;16.40;102547.00;;;;5061287;28;20542;-71
2022/03/24 07:55:00;;;;;;;17.63;13.55;;;17.20;39.60;16.40;102555.00;;;;5054702;28;20041;-71
2022/03/24 07:57:46;;;;;;;20.58;13.82;;;17.30;39.60;16.40;102551.00;;;;5052299;28;20043;-71
2022/03/24 08:00:32;;;;;;;18.30;13.75;;;17.30;39.60;16.40;102547.00;;;;5060359;28;20463;-71
2022/03/24 08:03:20;;;;;;;19.35;13.63;;;17.40;39.70;16.50;102547.00;;;;5058533;28;20060;-71
2022/03/24 08:06:06;;;;;;;21.75;14.20;;;17.40;39.70;16.50;102547.00;;;;5058181;28;20044;-71
2022/03/24 08:08:52;;;;;;;17.58;13.48;;;17.40;39.70;16.50;102545.00;;;;5041020;28;20041;-71
2022/03/24 08:11:38;;;;;;;19.27;13.80;;;17.40;39.60;16.50;102554.00;;;;5052875;28;20049;-71
2022/03/24 08:14:27;;;;;;;17.95;13.50;;;17.40;39.70;16.50;102555.00;;;;5054923;28;20041;-71
2022/03/24 08:17:13;;;;;;;17.70;13.20;;;17.40;39.70;16.50;102548.00;;;;5058318;28;20040;-71
2022/03/24 08:19:59;;;;;;;18.15;13.10;;;17.40;39.60;16.50;102551.00;;;;5046696;28;20091;-71
2022/03/24 08:22:45;;;;;;;16.85;13.30;;;17.50;39.70;16.60;102548.00;;;;5050983;28;20041;-71
2022/03/24 08:25:32;;;;;;;19.50;13.60;;;17.50;39.70;16.60;102553.00;;;;5058385;28;20045;-71
2022/03/24 08:28:18;;;;;;;18.75;13.23;;;17.50;39.70;16.60;102553.00;;;;5042676;28;20083;-71
2022/03/24 08:31:04;;;;;;;16.33;13.00;;;17.50;39.60;16.60;102553.00;;;;5058517;28;20045;-71
2022/03/24 08:33:50;;;;;;;17.00;13.13;;;17.50;39.60;16.60;102551.00;;;;5042190;28;20078;-71
2022/03/24 08:36:36;;;;;;;17.67;12.63;;;17.50;39.50;16.60;102559.00;;;;5046150;28;20049;-71
2022/03/24 08:39:22;;;;;;;17.08;12.68;;;17.60;39.50;16.60;102555.00;;;;5041860;28;20045;-71
2022/03/24 08:42:08;;;;;;;17.10;12.63;;;17.60;39.50;16.60;102555.00;;;;5062714;28;20048;-71
2022/03/24 08:44:54;;;;;;;18.63;12.27;;;17.60;39.50;16.60;102554.00;;;;5054406;28;20040;-71
2022/03/24 08:47:40;;;;;;;18.45;12.75;;;17.60;39.50;16.60;102554.00;;;;5052240;28;20036;-71
2022/03/24 08:50:26;;;;;;;20.52;13.23;;;17.60;39.50;16.60;102555.00;;;;5055964;28;20048;-71
2022/03/24 08:53:13;;;;;;;16.38;12.75;;;17.60;39.50;16.70;102552.00;;;;5046476;28;20048;-71
2022/03/24 08:55:59;;;;;;;15.02;11.43;;;17.70;39.60;16.70;102555.00;;;;5059958;28;20413;-71
2022/03/24 08:58:45;;;;;;;17.70;12.75;;;17.70;39.50;16.70;102558.00;;;;5034346;28;20486;-71
2022/03/24 09:01:35;;;;;;;17.52;12.68;;;17.60;39.40;16.70;102560.00;;;;5049437;28;20040;-71
2022/03/24 09:04:26;;;;;;;17.10;12.50;;;17.60;39.40;16.70;102552.00;;;;5061107;28;20087;-71
2022/03/24 09:07:12;;;;;;;19.08;12.95;;;17.70;39.50;16.70;102555.00;;;;5048769;28;20052;-71
2022/03/24 09:09:58;;;;;;;17.55;13.93;;;17.70;39.50;16.70;102553.00;;;;5061330;28;20052;-71
2022/03/24 09:12:46;;;;;;;17.88;13.07;;;17.70;39.50;16.70;102565.00;;;;5041769;28;20059;-71
2022/03/24 09:15:32;;;;;;;16.73;12.57;;;17.70;39.40;16.70;102559.00;;;;5042060;28;20127;-71
2022/03/24 09:18:18;;;;;;;17.67;12.48;;;17.70;39.50;16.70;102563.00;;;;5056033;28;20052;-71
2022/03/24 09:21:04;;;;;;;17.85;12.73;;;17.70;39.40;16.70;102568.00;;;;5058783;28;20086;-71
2022/03/24 09:23:50;;;;;;;17.17;11.98;;;17.70;39.40;16.70;102564.00;;;;5066163;28;20043;-71
2022/03/24 09:26:37;;;;;;;18.50;12.85;;;17.70;39.40;16.70;102561.00;;;;5057218;28;20471;-71
2022/03/24 09:29:23;;;;;;;16.27;12.25;;;17.80;39.40;16.70;102559.00;;;;5061283;28;20085;-71
2022/03/24 09:32:12;;;;;;;15.90;12.05;;;17.80;39.40;16.80;102565.00;;;;5065714;28;20140;-71
2022/03/24 09:34:58;;;;;;;17.40;12.50;;;17.80;39.40;16.80;102561.00;;;;5061991;28;20120;-71
2022/03/24 09:37:45;;;;;;;16.80;12.35;;;17.70;39.30;16.80;102565.00;;;;5062038;28;20043;-71
2022/03/24 09:40:34;;;;;;;16.50;11.45;;;17.90;39.40;16.80;102567.00;;;;5059560;28;20050;-71
2022/03/24 09:43:20;;;;;;;16.67;12.18;;;17.80;39.40;16.80;102564.00;;;;5061914;28;20482;-71
2022/03/24 09:46:06;;;;;;;15.98;12.10;;;17.80;39.40;16.80;102565.00;;;;5040487;28;20040;-71
2022/03/24 09:48:55;;;;;;;17.48;12.70;;;17.80;39.40;16.80;102560.00;;;;5060372;28;20051;-71
2022/03/24 09:51:43;;;;;;;17.70;12.20;;;17.80;39.40;16.80;102562.00;;;;5052850;28;20040;-71
2022/03/24 09:54:29;;;;;;;15.85;11.85;;;17.90;39.50;16.80;102566.00;;;;5047737;28;20406;-71
2022/03/24 09:57:15;;;;;;;16.27;11.95;;;17.90;39.40;16.80;102570.00;;;;5067109;28;20045;-71
2022/03/24 10:00:02;;;;;;;16.05;11.40;;;17.90;39.40;16.80;102564.00;;;;5058057;28;20126;-71
2022/03/24 10:03:26;;;;;;;16.73;11.70;;;17.90;39.40;16.80;102568.00;;;;5043106;28;20056;-71
2022/03/24 10:06:12;;;;;;;16.25;11.65;;;17.90;39.40;16.80;102563.00;;;;4976390;28;20046;-71
2022/03/24 10:08:59;;;;;;;16.55;11.77;;;17.90;39.40;16.90;102559.00;;;;4981950;28;20042;-71
2022/03/24 10:11:48;;;;;;;16.00;12.00;;;17.90;39.40;16.90;102559.00;;;;5046940;28;20048;-71
2022/03/24 10:14:35;;;;;;;14.52;11.32;;;17.90;39.50;16.90;102561.00;;;;5047886;28;20090;-71
2022/03/24 10:17:21;;;;;;;15.10;11.32;;;17.90;39.50;16.90;102564.00;;;;5046446;28;20044;-71
2022/03/24 10:20:17;;;;;;;16.60;10.88;;;17.90;40.10;16.90;102552.00;;;;5057828;28;20071;-71
2022/03/24 10:23:05;;;;;;;14.43;10.68;;;17.90;39.50;16.90;102560.00;;;;5058475;28;20098;-71
2022/03/24 10:25:52;;;;;;;14.32;10.77;;;17.90;39.50;16.90;102551.00;;;;5066849;28;20064;-71
2022/03/24 10:28:38;;;;;;;14.27;11.23;;;18.00;39.60;16.90;102559.00;;;;5045397;28;20129;-71
2022/03/24 10:31:43;;;;;;;14.57;10.18;;;18.00;39.60;16.90;102550.00;;;;5062591;28;20075;-71
2022/03/24 10:34:41;;;;;;;13.35;10.35;;;17.90;39.40;16.90;102549.00;;;;5063446;28;20053;-71
2022/03/24 10:37:27;;;;;;;12.47;9.53;;;18.00;39.50;16.90;102548.00;;;;5050827;28;20250;-71
2022/03/24 10:40:13;;;;;;;14.15;10.32;;;18.00;39.50;16.90;102550.00;;;;5058860;28;20043;-71
2022/03/24 10:42:59;;;;;;;13.93;10.23;;;18.00;39.50;16.90;102553.00;;;;5059492;28;20035;-71
2022/03/24 10:45:45;;;;;;;14.32;10.65;;;18.00;39.50;16.90;102543.00;;;;5063529;28;20111;-71
2022/03/24 10:48:31;;;;;;;14.23;10.25;;;18.00;39.50;16.90;102548.00;;;;5049179;28;20056;-71
2022/03/24 10:51:31;;;;;;;13.02;10.05;;;18.00;39.40;16.90;102541.00;;;;5040815;28;20396;-71
2022/03/24 10:54:48;;;;;;;13.55;9.70;;;18.00;39.40;16.90;102531.00;;;;5039852;28;20115;-71
2022/03/24 10:57:34;;;;;;;14.27;10.20;;;18.00;39.40;16.90;102532.00;;;;5048155;28;20417;-71
2022/03/24 11:00:20;;;;;;;14.45;10.02;;;18.00;39.30;17.00;102532.00;;;;5058905;28;20112;-71
2022/03/24 11:03:07;;;;;;;13.35;10.00;;;18.00;39.40;16.90;102531.00;;;;5042836;28;20055;-71
2022/03/24 11:06:14;;;;;;;13.57;9.82;;;18.00;39.40;17.00;102538.00;;;;5043016;28;20094;-71
2022/03/24 11:09:00;;;;;;;16.95;10.65;;;18.00;39.30;17.00;102535.00;;;;5046745;28;20082;-71
2022/03/24 11:11:46;;;;;;;13.90;10.43;;;18.10;39.40;17.00;102527.00;;;;5056921;28;20124;-71
2022/03/24 11:14:39;;;;;;;12.82;10.30;;;18.00;39.30;17.00;102526.00;;;;5038591;28;20044;-71
2022/03/24 11:17:30;;;;;;;12.35;9.27;;;18.00;39.20;17.00;102533.00;;;;5046612;28;20051;-71
2022/03/24 11:20:36;;;;;;;14.20;9.70;;;18.10;39.40;17.00;102523.00;;;;5054259;28;20091;-71
2022/03/24 11:23:22;;;;;;;14.80;10.60;;;18.10;39.30;17.00;102520.00;;;;5032364;28;20040;-71
2022/03/24 11:26:09;;;;;;;14.93;10.52;;;18.00;38.80;17.00;102515.00;;;;5054088;28;20441;-71
2022/03/24 11:28:56;;;;;;;15.67;11.40;;;18.00;39.00;17.00;102520.00;;;;5042606;28;20043;-71
2022/03/24 11:31:44;;;;;;;13.60;10.20;;;18.10;38.50;17.00;102522.00;;;;5058925;28;20032;-71
2022/03/24 11:34:31;;;;;;;14.00;10.02;;;18.10;38.80;17.00;102526.00;;;;5060307;28;20482;-71
2022/03/24 11:37:17;;;;;;;11.27;9.00;;;18.10;38.90;17.00;102520.00;;;;5045423;28;20461;-71
2022/03/24 11:40:05;;;;;;;14.30;10.18;;;18.10;39.00;17.00;102520.00;;;;5046315;28;20372;-71
2022/03/24 11:43:01;;;;;;;13.93;9.80;;;18.10;38.90;17.00;102518.00;;;;5060052;28;20117;-71
2022/03/24 11:46:04;;;;;;;12.82;10.45;;;18.10;38.90;17.00;102512.00;;;;5025760;28;20044;-71
2022/03/24 11:48:51;;;;;;;12.57;9.32;;;18.10;38.90;17.10;102514.00;;;;5046945;28;20037;-71
2022/03/24 11:51:37;;;;;;;15.07;10.27;;;18.10;38.90;17.10;102510.00;;;;5066098;28;20127;-71
2022/03/24 11:54:30;;;;;;;13.02;9.50;;;18.20;38.90;17.10;102508.00;;;;5064987;28;20045;-71
2022/03/24 11:57:22;;;;;;;15.23;10.32;;;18.10;38.90;17.10;102511.00;;;;5056828;28;20040;-71
2022/03/24 12:00:14;;;;;;;16.67;11.18;;;18.20;38.90;17.10;102506.00;;;;5060502;28;20043;-71